Time;durP1;ratioP1;P1;durP2;ratioP2;P2;SDS_P1;SDS_P2;PMS_P1;PMS_P2;Temp;Humidity;BMP_temperature;BMP_pressure;BME280_temperature;BME280_humidity;BME280_pressure;Samples;Min_cycle;Max_cycle;Signal;HPM_P1;HPM_P2
2023/09/01 00:00:24;;;;;;;5.03;4.53;;;16.60;99.90;;;;;;4077847;29;20090;-67
2023/09/01 00:02:25;;;;;;;7.90;4.35;;;16.60;99.90;;;;;;4080304;29;20118;-65
2023/09/01 00:04:26;;;;;;;10.18;4.45;;;16.70;99.90;;;;;;4079529;29;20035;-66
2023/09/01 00:06:29;;;;;;;7.15;4.40;;;16.60;99.90;;;;;;4080343;29;20039;-66
2023/09/01 00:08:31;;;;;;;5.20;4.30;;;16.70;99.90;;;;;;4078963;29;20118;-66
2023/09/01 00:10:35;;;;;;;6.78;3.85;;;16.70;99.90;;;;;;4082632;29;20428;-65
2023/09/01 00:12:36;;;;;;;7.38;3.72;;;16.70;99.90;;;;;;4084825;29;20149;-69
2023/09/01 00:14:38;;;;;;;7.32;3.83;;;16.70;99.90;;;;;;4085916;29;20435;-69
2023/09/01 00:16:39;;;;;;;6.13;4.63;;;16.70;99.90;;;;;;4084860;29;20090;-64
2023/09/01 00:18:40;;;;;;;6.13;4.68;;;16.70;99.90;;;;;;4085673;29;20047;-66
2023/09/01 00:20:41;;;;;;;5.57;4.30;;;16.70;99.90;;;;;;4085109;29;20020;-67
2023/09/01 00:22:42;;;;;;;8.05;3.72;;;16.70;99.90;;;;;;4085153;29;20090;-64
2023/09/01 00:24:43;;;;;;;4.03;3.58;;;16.70;99.90;;;;;;4083667;29;20126;-63
2023/09/01 00:26:45;;;;;;;6.75;3.75;;;16.70;99.90;;;;;;4083382;29;20044;-66
2023/09/01 00:28:46;;;;;;;8.98;3.55;;;16.70;99.90;;;;;;4085726;29;20031;-66
2023/09/01 00:31:05;;;;;;;6.57;3.60;;;16.70;99.90;;;;;;4084413;29;20083;-66
2023/09/01 00:33:06;;;;;;;6.65;4.10;;;16.80;99.90;;;;;;4085146;29;20094;-65
2023/09/01 00:35:07;;;;;;;5.45;3.60;;;16.70;99.90;;;;;;4084269;29;20535;-65
2023/09/01 00:37:09;;;;;;;7.03;3.75;;;16.80;99.90;;;;;;4085815;29;20035;-67
2023/09/01 00:39:10;;;;;;;7.40;3.50;;;16.80;99.90;;;;;;4084480;29;20044;-61
2023/09/01 00:41:11;;;;;;;6.00;3.35;;;16.70;99.90;;;;;;4085941;29;20036;-66
2023/09/01 00:43:12;;;;;;;6.57;3.10;;;16.80;99.90;;;;;;4083983;29;20095;-65
2023/09/01 00:45:14;;;;;;;5.63;3.58;;;16.70;99.90;;;;;;4085900;29;20619;-66
2023/09/01 00:47:15;;;;;;;4.68;3.38;;;16.70;99.90;;;;;;4084208;29;20102;-67
2023/09/01 00:49:18;;;;;;;5.57;2.50;;;16.80;99.90;;;;;;4085694;29;20035;-62
2023/09/01 00:51:19;;;;;;;6.65;2.83;;;16.80;99.90;;;;;;4084453;29;20365;-64
2023/09/01 00:53:21;;;;;;;3.03;2.67;;;16.80;99.90;;;;;;4085371;29;20032;-67
2023/09/01 00:55:22;;;;;;;4.63;2.63;;;16.70;99.90;;;;;;4084669;29;20086;-65
2023/09/01 00:57:23;;;;;;;3.22;2.78;;;16.70;99.90;;;;;;4085066;29;20031;-66
2023/09/01 00:59:24;;;;;;;3.30;2.90;;;16.80;99.90;;;;;;4084730;29;20186;-65
2023/09/01 01:01:26;;;;;;;4.80;2.72;;;16.80;99.90;;;;;;4084575;29;20040;-65
2023/09/01 01:03:27;;;;;;;7.75;2.53;;;16.80;99.90;;;;;;4084989;29;20039;-67
2023/09/01 01:06:09;;;;;;;6.28;2.63;;;16.80;99.90;;;;;;4084601;29;20036;-67
2023/09/01 01:08:29;;;;;;;5.68;2.85;;;16.80;99.90;;;;;;4084752;29;20035;-69
2023/09/01 01:10:45;;;;;;;7.57;3.43;;;16.80;99.90;;;;;;4084941;29;20075;-67
2023/09/01 01:12:57;;;;;;;6.18;2.50;;;16.80;99.90;;;;;;4084578;29;20324;-65
2023/09/01 01:15:01;;;;;;;6.75;3.10;;;16.70;99.90;;;;;;4085158;29;20040;-66
2023/09/01 01:17:05;;;;;;;4.47;2.53;;;16.70;99.90;;;;;;4084524;29;20087;-62
2023/09/01 01:19:38;;;;;;;5.75;2.88;;;16.70;99.90;;;;;;4084533;29;20106;-67
2023/09/01 01:21:43;;;;;;;3.72;2.38;;;16.70;99.90;;;;;;4083755;29;20075;-66
2023/09/01 01:23:44;;;;;;;4.25;2.60;;;16.70;99.90;;;;;;4082829;29;20019;-67
2023/09/01 01:25:50;;;;;;;2.83;2.53;;;16.70;99.90;;;;;;4081911;29;20110;-67
2023/09/01 01:27:57;;;;;;;5.88;2.85;;;16.70;99.90;;;;;;4082486;29;20082;-68
2023/09/01 01:29:58;;;;;;;5.35;3.13;;;16.70;99.90;;;;;;4081973;29;20047;-65
2023/09/01 01:32:00;;;;;;;3.53;2.08;;;16.70;99.90;;;;;;4081892;29;20039;-66
2023/09/01 01:34:19;;;;;;;6.82;2.75;;;16.70;99.90;;;;;;4082348;29;20043;-66
2023/09/01 01:36:46;;;;;;;6.38;2.80;;;16.70;99.90;;;;;;4082344;29;20091;-65
2023/09/01 01:39:05;;;;;;;2.72;2.35;;;16.70;99.90;;;;;;4080610;29;20115;-67
2023/09/01 01:41:48;;;;;;;3.58;2.40;;;16.60;99.90;;;;;;4082830;29;20095;-69
2023/09/01 01:43:51;;;;;;;2.92;2.17;;;16.60;99.90;;;;;;4074357;29;20187;-67
2023/09/01 01:45:54;;;;;;;9.57;2.53;;;16.60;99.90;;;;;;4082313;29;20043;-67
2023/09/01 01:47:55;;;;;;;2.30;2.10;;;16.50;99.90;;;;;;4081263;29;20057;-66
2023/09/01 01:49:56;;;;;;;2.83;2.15;;;16.50;99.90;;;;;;4082702;29;20429;-66
2023/09/01 01:51:58;;;;;;;5.07;2.28;;;16.50;99.90;;;;;;4081411;29;20064;-68
2023/09/01 01:53:59;;;;;;;2.38;2.17;;;16.60;99.90;;;;;;4081995;29;20547;-65
2023/09/01 01:56:01;;;;;;;4.45;2.22;;;16.50;99.90;;;;;;4081619;29;20556;-66
2023/09/01 01:58:05;;;;;;;3.78;2.00;;;16.50;99.90;;;;;;4081475;29;20861;-66
2023/09/01 02:00:11;;;;;;;3.58;2.13;;;16.50;99.90;;;;;;4081737;29;20027;-67
2023/09/01 02:02:12;;;;;;;6.47;2.45;;;16.60;99.90;;;;;;4081472;29;20429;-68
2023/09/01 02:04:13;;;;;;;4.97;2.05;;;16.50;99.90;;;;;;4081963;29;20067;-68
2023/09/01 02:06:14;;;;;;;3.85;2.22;;;16.50;99.90;;;;;;4081458;29;20244;-68
2023/09/01 02:08:15;;;;;;;3.03;2.17;;;16.50;99.90;;;;;;4082098;29;20035;-67
2023/09/01 02:10:17;;;;;;;6.85;2.17;;;16.50;99.90;;;;;;4080905;29;20040;-68
2023/09/01 02:12:18;;;;;;;9.68;2.13;;;16.50;99.90;;;;;;4082250;29;20024;-67
2023/09/01 02:14:20;;;;;;;2.83;2.20;;;16.50;99.90;;;;;;4080914;29;20589;-64
2023/09/01 02:16:24;;;;;;;4.93;2.10;;;16.50;99.90;;;;;;4082060;29;20083;-63
2023/09/01 02:18:25;;;;;;;4.85;2.25;;;16.50;99.90;;;;;;4081069;29;20111;-68
2023/09/01 02:20:28;;;;;;;4.45;1.92;;;16.50;99.90;;;;;;4082131;29;20020;-62
2023/09/01 02:22:29;;;;;;;2.85;2.20;;;16.50;99.90;;;;;;4080797;29;20083;-67
2023/09/01 02:24:31;;;;;;;5.53;2.65;;;16.50;99.90;;;;;;4082137;29;20032;-63
2023/09/01 02:26:32;;;;;;;5.38;2.10;;;16.60;99.90;;;;;;4080943;29;20485;-62
2023/09/01 02:28:33;;;;;;;5.30;2.00;;;16.60;99.90;;;;;;4081715;29;20389;-68
2023/09/01 02:30:34;;;;;;;6.78;1.85;;;16.70;99.90;;;;;;4080866;29;20032;-64
2023/09/01 02:32:39;;;;;;;4.60;2.33;;;16.70;99.90;;;;;;4081061;29;20088;-67
2023/09/01 02:34:40;;;;;;;5.78;2.67;;;16.70;99.90;;;;;;4080963;29;20027;-64
2023/09/01 02:36:41;;;;;;;3.92;2.13;;;16.70;99.90;;;;;;4081024;29;20091;-62
2023/09/01 02:38:42;;;;;;;3.42;1.75;;;16.70;99.90;;;;;;4081513;29;20051;-66
2023/09/01 02:40:43;;;;;;;7.53;4.10;;;16.70;99.90;;;;;;4080763;29;20065;-63
2023/09/01 02:42:45;;;;;;;4.75;2.47;;;16.80;99.90;;;;;;4081543;29;20098;-66
2023/09/01 02:44:46;;;;;;;4.65;2.55;;;16.70;99.90;;;;;;4079260;29;20436;-67
2023/09/01 02:46:47;;;;;;;2.42;2.03;;;16.80;99.90;;;;;;4081416;29;20057;-68
2023/09/01 02:48:49;;;;;;;5.10;1.98;;;16.80;99.90;;;;;;4080494;29;20027;-66
2023/09/01 02:50:50;;;;;;;4.35;1.83;;;16.80;99.90;;;;;;4081649;29;20071;-65
2023/09/01 02:52:51;;;;;;;5.55;2.33;;;16.80;99.90;;;;;;4080246;29;20107;-64
2023/09/01 02:54:52;;;;;;;2.40;1.70;;;16.80;99.90;;;;;;4081433;29;20044;-68
2023/09/01 02:56:53;;;;;;;4.43;1.85;;;16.80;99.90;;;;;;4080383;29;20118;-66
2023/09/01 02:58:54;;;;;;;3.42;2.55;;;16.80;99.90;;;;;;4081079;29;20456;-68
2023/09/01 03:00:56;;;;;;;3.42;2.25;;;16.80;99.90;;;;;;4079873;29;20100;-66
2023/09/01 03:02:57;;;;;;;4.75;1.80;;;16.80;99.90;;;;;;4081047;29;20040;-65
2023/09/01 03:04:59;;;;;;;3.67;1.80;;;16.80;99.90;;;;;;4079149;29;20036;-67
2023/09/01 03:07:00;;;;;;;5.00;2.55;;;16.80;99.90;;;;;;4080060;29;20035;-63
2023/09/01 03:09:02;;;;;;;4.70;2.08;;;16.70;99.90;;;;;;4080891;29;20118;-65
2023/09/01 03:11:04;;;;;;;2.53;1.83;;;16.70;99.90;;;;;;4078699;29;20040;-68
2023/09/01 03:13:05;;;;;;;3.67;1.92;;;16.70;99.90;;;;;;4080988;29;20480;-66
2023/09/01 03:15:08;;;;;;;3.13;2.00;;;16.60;99.90;;;;;;4080055;29;20032;-68
2023/09/01 03:17:09;;;;;;;2.42;2.05;;;16.50;99.90;;;;;;4080913;29;20051;-66
2023/09/01 03:19:10;;;;;;;3.60;2.40;;;16.50;99.90;;;;;;4079382;29;20130;-65
2023/09/01 03:21:13;;;;;;;3.47;2.00;;;16.50;99.90;;;;;;4081226;29;20104;-69
2023/09/01 03:23:14;;;;;;;6.32;2.22;;;16.40;99.90;;;;;;4080091;29;20048;-67
2023/09/01 03:25:17;;;;;;;7.88;2.55;;;16.40;99.90;;;;;;4080932;29;20099;-66
2023/09/01 03:27:18;;;;;;;7.07;2.10;;;16.30;99.90;;;;;;4079834;29;20079;-67
2023/09/01 03:29:19;;;;;;;7.88;3.45;;;16.30;99.90;;;;;;4080570;29;20405;-67
2023/09/01 03:31:21;;;;;;;9.75;2.20;;;16.20;99.90;;;;;;4079880;29;20079;-66
2023/09/01 03:33:22;;;;;;;3.60;2.30;;;16.10;99.90;;;;;;4080530;29;20023;-67
2023/09/01 03:35:23;;;;;;;5.75;2.30;;;16.10;99.90;;;;;;4080237;29;20024;-64
2023/09/01 03:37:24;;;;;;;8.07;2.63;;;16.10;99.90;;;;;;4080214;29;20024;-67
2023/09/01 03:39:26;;;;;;;7.65;4.18;;;16.00;99.90;;;;;;4080653;29;20048;-67
2023/09/01 03:41:27;;;;;;;8.60;2.45;;;16.00;99.90;;;;;;4079391;29;20044;-66
2023/09/01 03:43:28;;;;;;;7.60;2.00;;;15.90;99.90;;;;;;4080900;29;20048;-65
2023/09/01 03:45:29;;;;;;;2.88;2.13;;;15.90;99.90;;;;;;4078717;29;20083;-66
2023/09/01 03:47:30;;;;;;;5.03;2.35;;;15.80;99.90;;;;;;4080300;29;20048;-65
2023/09/01 03:49:32;;;;;;;2.55;2.35;;;15.80;99.90;;;;;;4079725;29;20110;-65
2023/09/01 03:51:34;;;;;;;6.47;2.42;;;15.80;99.90;;;;;;4080921;29;20032;-66
2023/09/01 03:53:36;;;;;;;3.30;2.53;;;15.90;99.90;;;;;;4079334;29;20090;-67
2023/09/01 03:55:38;;;;;;;4.55;2.60;;;15.90;99.90;;;;;;4080835;29;20031;-65
2023/09/01 03:57:39;;;;;;;6.13;2.38;;;15.80;99.90;;;;;;4079386;29;20095;-67
2023/09/01 03:59:41;;;;;;;2.13;1.88;;;15.80;99.90;;;;;;4080015;29;20130;-66
2023/09/01 04:01:45;;;;;;;6.22;2.67;;;15.80;99.90;;;;;;4079230;29;20374;-67
2023/09/01 04:03:47;;;;;;;6.57;3.03;;;15.90;99.90;;;;;;4080144;29;20032;-64
2023/09/01 04:05:49;;;;;;;4.65;3.47;;;15.90;99.90;;;;;;4079144;29;20039;-65
2023/09/01 04:07:50;;;;;;;7.22;3.13;;;15.90;99.90;;;;;;4079633;29;20083;-68
2023/09/01 04:09:51;;;;;;;6.35;3.08;;;15.90;99.90;;;;;;4080205;29;20374;-64
2023/09/01 04:11:54;;;;;;;4.75;2.88;;;16.00;99.90;;;;;;4079464;29;20591;-68
2023/09/01 04:13:55;;;;;;;5.13;2.35;;;16.10;99.90;;;;;;4080209;29;20036;-68
2023/09/01 04:15:57;;;;;;;4.43;3.05;;;16.40;99.90;;;;;;4078790;29;20039;-64
2023/09/01 04:17:58;;;;;;;6.03;3.20;;;16.70;99.90;;;;;;4080570;29;20088;-64
2023/09/01 04:19:59;;;;;;;5.13;3.30;;;16.90;99.90;;;;;;4079532;29;20044;-66
2023/09/01 04:22:00;;;;;;;6.32;2.55;;;17.20;99.90;;;;;;4080660;29;20032;-68
2023/09/01 04:24:01;;;;;;;3.65;2.05;;;17.40;99.90;;;;;;4079388;29;20150;-61
2023/09/01 04:26:02;;;;;;;7.10;2.90;;;17.50;99.90;;;;;;4080657;29;20108;-67
2023/09/01 04:28:04;;;;;;;5.03;2.72;;;17.60;99.90;;;;;;4078710;29;20047;-63
2023/09/01 04:30:05;;;;;;;3.78;1.77;;;17.70;99.90;;;;;;4080300;29;20079;-66
2023/09/01 04:32:06;;;;;;;7.05;2.08;;;17.90;99.90;;;;;;4079056;29;20051;-65
2023/09/01 04:34:08;;;;;;;2.17;1.92;;;17.80;99.90;;;;;;4080080;29;20067;-68
2023/09/01 04:36:09;;;;;;;5.13;2.30;;;17.80;99.90;;;;;;4079393;29;20099;-66
2023/09/01 04:38:10;;;;;;;4.75;2.30;;;17.90;99.90;;;;;;4078267;29;20071;-66
2023/09/01 04:40:13;;;;;;;4.10;2.05;;;18.10;99.90;;;;;;4078842;29;20056;-63
2023/09/01 04:42:14;;;;;;;3.97;2.17;;;18.40;99.90;;;;;;4079115;29;20027;-63
2023/09/01 04:44:15;;;;;;;3.35;2.83;;;18.80;99.90;;;;;;4079963;29;20044;-67
2023/09/01 04:46:16;;;;;;;5.45;2.28;;;19.30;99.90;;;;;;4078681;29;20111;-66
2023/09/01 04:48:17;;;;;;;4.43;2.20;;;19.60;99.90;;;;;;4080195;29;20412;-64
2023/09/01 04:50:18;;;;;;;6.75;2.17;;;19.90;99.90;;;;;;4078657;29;20039;-67
2023/09/01 04:52:20;;;;;;;4.18;2.63;;;20.30;99.90;;;;;;4080099;29;20040;-68
2023/09/01 04:54:21;;;;;;;5.90;2.03;;;20.40;99.90;;;;;;4078974;29;20055;-68
2023/09/01 04:56:22;;;;;;;3.55;2.05;;;20.70;99.90;;;;;;4079626;29;20043;-66
2023/09/01 04:58:23;;;;;;;4.57;2.15;;;21.00;99.90;;;;;;4081951;29;20036;-65
2023/09/01 05:00:24;;;;;;;4.60;2.00;;;21.30;99.90;;;;;;4082901;29;20460;-67
2023/09/01 05:02:25;;;;;;;9.68;2.05;;;21.70;99.90;;;;;;4080247;29;20047;-66
2023/09/01 05:04:27;;;;;;;7.43;1.85;;;21.80;99.90;;;;;;4082905;29;20032;-61
2023/09/01 05:06:28;;;;;;;2.20;1.48;;;22.00;99.90;;;;;;4081567;29;20087;-66
2023/09/01 05:08:29;;;;;;;4.22;1.70;;;21.90;99.90;;;;;;4082007;29;20492;-63
2023/09/01 05:10:30;;;;;;;5.20;2.03;;;22.30;99.90;;;;;;4081894;29;20091;-65
2023/09/01 05:12:31;;;;;;;3.75;1.70;;;22.40;99.90;;;;;;4081908;29;20417;-67
2023/09/01 05:14:32;;;;;;;4.78;2.00;;;22.80;99.90;;;;;;4082389;29;20102;-68
2023/09/01 05:16:34;;;;;;;5.30;2.25;;;23.30;99.90;;;;;;4080819;29;20048;-68
2023/09/01 05:18:35;;;;;;;8.32;2.97;;;23.50;99.90;;;;;;4082204;29;20035;-64
2023/09/01 05:20:36;;;;;;;6.15;1.73;;;23.70;99.90;;;;;;4081603;29;20476;-62
2023/09/01 05:22:38;;;;;;;3.95;2.00;;;23.90;99.90;;;;;;4082361;29;20115;-68
2023/09/01 05:24:40;;;;;;;5.85;1.92;;;24.20;99.90;;;;;;4081515;29;20091;-67
2023/09/01 05:26:41;;;;;;;2.47;1.80;;;24.10;99.90;;;;;;4082617;29;20432;-65
2023/09/01 05:28:43;;;;;;;4.32;1.55;;;24.30;99.90;;;;;;4081477;29;20548;-67
2023/09/01 05:30:44;;;;;;;6.80;1.52;;;24.40;99.90;;;;;;4082512;29;20083;-67
2023/09/01 05:32:45;;;;;;;6.05;1.58;;;24.80;99.90;;;;;;4081216;29;20476;-66
2023/09/01 05:34:46;;;;;;;2.78;1.55;;;25.40;99.90;;;;;;4082451;29;20098;-68
2023/09/01 05:36:47;;;;;;;7.03;1.20;;;25.90;99.90;;;;;;4081683;29;20031;-67
2023/09/01 05:38:48;;;;;;;4.30;1.40;;;26.10;99.90;;;;;;4081767;29;20090;-68
2023/09/01 05:40:56;;;;;;;5.25;1.38;;;26.40;99.90;;;;;;4081425;29;20173;-66
2023/09/01 05:42:57;;;;;;;4.95;1.20;;;26.90;99.90;;;;;;4081570;29;20461;-65
2023/09/01 05:44:59;;;;;;;4.15;1.17;;;27.20;99.90;;;;;;4081902;29;20083;-66
2023/09/01 05:47:00;;;;;;;4.38;1.30;;;27.50;99.90;;;;;;4080868;29;20118;-63
2023/09/01 05:49:01;;;;;;;2.72;1.20;;;27.70;99.90;;;;;;4082303;29;20319;-64
2023/09/01 05:51:03;;;;;;;3.15;1.55;;;27.70;99.80;;;;;;4081288;29;20099;-66
2023/09/01 05:53:04;;;;;;;2.55;1.30;;;27.90;99.40;;;;;;4082324;29;20090;-67
2023/09/01 05:55:05;;;;;;;5.55;1.65;;;27.50;99.00;;;;;;4081145;29;20032;-68
2023/09/01 05:57:06;;;;;;;4.50;1.30;;;26.80;99.10;;;;;;4082247;29;21030;-68
2023/09/01 05:59:07;;;;;;;2.63;1.30;;;26.90;99.30;;;;;;4080569;29;20108;-68
2023/09/01 06:01:08;;;;;;;2.80;1.50;;;27.00;99.00;;;;;;4081885;29;20540;-68
2023/09/01 06:03:10;;;;;;;1.92;1.35;;;27.40;98.70;;;;;;4080904;29;20091;-68
2023/09/01 06:05:11;;;;;;;2.42;1.27;;;28.00;98.00;;;;;;4081535;29;20059;-67
2023/09/01 06:07:12;;;;;;;3.50;1.48;;;28.50;97.50;;;;;;4081234;29;20044;-67
2023/09/01 06:09:13;;;;;;;4.63;1.60;;;28.90;96.90;;;;;;4079533;29;20105;-66
2023/09/01 06:11:15;;;;;;;3.67;1.20;;;29.10;96.20;;;;;;4081475;29;20336;-69
2023/09/01 06:13:16;;;;;;;5.07;1.10;;;28.60;95.60;;;;;;4081187;29;20199;-69
2023/09/01 06:15:17;;;;;;;2.65;1.08;;;28.10;95.80;;;;;;4081113;29;20047;-68
2023/09/01 06:17:18;;;;;;;1.48;0.90;;;28.40;95.90;;;;;;4081053;29;20079;-66
2023/09/01 06:19:19;;;;;;;2.45;0.90;;;28.50;95.50;;;;;;4081659;29;20106;-69
2023/09/01 06:21:20;;;;;;;6.63;1.50;;;28.20;95.30;;;;;;4080795;29;20035;-67
2023/09/01 06:23:22;;;;;;;4.50;1.45;;;28.50;95.30;;;;;;4081077;29;20035;-67
2023/09/01 06:25:23;;;;;;;3.72;1.30;;;29.10;94.80;;;;;;4080628;29;20086;-66
2023/09/01 06:27:24;;;;;;;2.92;1.00;;;29.20;94.20;;;;;;4081834;29;20032;-68
2023/09/01 06:29:25;;;;;;;4.50;1.30;;;29.40;94.20;;;;;;4080173;29;20437;-69
2023/09/01 06:31:26;;;;;;;3.38;1.30;;;29.40;94.10;;;;;;4081693;29;20086;-67
2023/09/01 06:33:27;;;;;;;5.95;1.38;;;29.40;93.90;;;;;;4080465;29;20023;-66
2023/09/01 06:35:28;;;;;;;1.52;1.10;;;29.70;93.60;;;;;;4081466;29;20441;-65
2023/09/01 06:37:30;;;;;;;2.50;1.02;;;30.00;93.30;;;;;;4080674;29;20079;-67
2023/09/01 06:39:31;;;;;;;3.10;1.30;;;29.90;92.90;;;;;;4081149;29;20110;-69
2023/09/01 06:41:33;;;;;;;2.45;1.25;;;30.00;92.90;;;;;;4080963;29;20083;-66
2023/09/01 06:43:34;;;;;;;2.33;1.33;;;30.10;92.60;;;;;;4080204;29;20048;-69
2023/09/01 06:45:35;;;;;;;2.42;1.27;;;30.20;92.40;;;;;;4080977;29;20039;-64
2023/09/01 06:47:36;;;;;;;3.05;1.10;;;29.90;92.00;;;;;;4079755;29;20083;-69
2023/09/01 06:49:37;;;;;;;2.20;1.42;;;29.30;92.40;;;;;;4081513;29;20099;-68
2023/09/01 06:51:39;;;;;;;1.50;0.75;;;29.20;92.50;;;;;;4080226;29;20047;-69
2023/09/01 06:53:40;;;;;;;3.50;1.15;;;29.00;92.50;;;;;;4081303;29;20106;-65
2023/09/01 06:55:41;;;;;;;1.33;1.00;;;29.30;92.30;;;;;;4079615;29;20099;-65
2023/09/01 06:57:42;;;;;;;3.85;0.98;;;29.50;92.20;;;;;;4081120;29;20032;-68
2023/09/01 06:59:44;;;;;;;2.72;0.90;;;29.40;92.00;;;;;;4079993;29;20098;-67
2023/09/01 07:01:45;;;;;;;4.35;0.90;;;28.90;91.80;;;;;;4080440;29;20043;-66
2023/09/01 07:03:46;;;;;;;1.75;0.90;;;29.00;92.00;;;;;;4080269;29;20040;-68
2023/09/01 07:05:57;;;;;;;1.80;1.35;;;29.00;91.80;;;;;;4081065;29;20028;-68
2023/09/01 07:07:59;;;;;;;2.22;0.90;;;29.10;90.90;;;;;;4079590;29;20047;-63
2023/09/01 07:10:00;;;;;;;7.45;1.40;;;29.00;91.70;;;;;;4080520;29;20040;-66
2023/09/01 07:12:01;;;;;;;1.17;1.00;;;28.90;91.50;;;;;;4079881;29;20040;-68
2023/09/01 07:14:02;;;;;;;2.90;1.10;;;29.00;91.70;;;;;;4080276;29;20027;-65
2023/09/01 07:16:04;;;;;;;2.22;1.02;;;29.00;91.40;;;;;;4079984;29;20091;-69
2023/09/01 07:18:06;;;;;;;3.20;1.00;;;29.10;91.10;;;;;;4080112;29;20445;-70
2023/09/01 07:20:07;;;;;;;3.50;0.70;;;29.20;90.80;;;;;;4080309;29;20500;-63
2023/09/01 07:22:08;;;;;;;1.00;0.88;;;29.30;90.50;;;;;;4079447;29;20481;-68
2023/09/01 07:24:11;;;;;;;3.05;1.02;;;29.00;90.20;;;;;;4080758;29;20035;-66
2023/09/01 07:26:13;;;;;;;4.47;0.98;;;28.50;90.60;;;;;;4078212;29;20107;-64
2023/09/01 07:28:14;;;;;;;4.00;0.90;;;28.10;90.90;;;;;;4080885;29;20481;-66
2023/09/01 07:30:16;;;;;;;2.03;1.10;;;27.60;91.10;;;;;;4079680;29;20040;-64
2023/09/01 07:32:17;;;;;;;0.73;0.52;;;27.50;91.20;;;;;;4080786;29;20135;-65
2023/09/01 07:34:18;;;;;;;1.40;0.95;;;27.60;90.70;;;;;;4079634;29;20031;-66
2023/09/01 07:36:21;;;;;;;0.90;0.90;;;27.40;90.70;;;;;;4080560;29;20027;-61
2023/09/01 07:38:23;;;;;;;0.73;0.60;;;27.20;90.40;;;;;;4078104;29;20083;-64
2023/09/01 07:40:26;;;;;;;2.15;0.60;;;27.10;90.60;;;;;;4080333;29;20040;-67
2023/09/01 07:42:27;;;;;;;1.63;0.80;;;27.10;90.50;;;;;;4079539;29;20472;-64
2023/09/01 07:44:28;;;;;;;0.82;0.82;;;27.10;90.80;;;;;;4079353;29;20087;-63
2023/09/01 07:46:33;;;;;;;7.20;1.42;;;27.20;90.30;;;;;;4079291;29;20099;-63
2023/09/01 07:48:34;;;;;;;7.10;1.20;;;27.10;90.20;;;;;;4079735;29;20457;-66
2023/09/01 07:50:36;;;;;;;2.78;0.82;;;27.20;90.10;;;;;;4080057;29;20055;-68
2023/09/01 07:52:37;;;;;;;4.43;1.10;;;27.00;90.10;;;;;;4079242;29;20090;-68
2023/09/01 07:54:38;;;;;;;5.22;0.93;;;26.80;89.80;;;;;;4080452;29;20425;-66
2023/09/01 07:56:39;;;;;;;9.43;1.67;;;26.50;89.80;;;;;;4079371;29;20157;-68
2023/09/01 07:58:40;;;;;;;14.07;2.65;;;26.50;90.20;;;;;;4080492;29;20051;-68
2023/09/01 08:00:42;;;;;;;8.98;2.17;;;26.50;90.10;;;;;;4079158;29;20110;-63
2023/09/01 08:02:43;;;;;;;8.07;1.17;;;26.50;90.10;;;;;;4080314;29;20040;-65
2023/09/01 08:04:44;;;;;;;2.90;0.60;;;26.60;90.00;;;;;;4079245;29;20067;-66
2023/09/01 08:06:47;;;;;;;0.77;0.77;;;26.70;89.90;;;;;;4079786;29;20048;-63
2023/09/01 08:08:48;;;;;;;0.82;0.80;;;26.70;89.80;;;;;;4077408;29;20044;-64
2023/09/01 08:10:50;;;;;;;1.15;0.80;;;26.60;90.00;;;;;;4080159;29;20483;-66
2023/09/01 08:12:51;;;;;;;0.60;0.60;;;26.60;90.00;;;;;;4077246;29;20060;-65
2023/09/01 08:14:53;;;;;;;2.20;0.70;;;26.60;90.00;;;;;;4079486;29;20547;-66
2023/09/01 08:16:54;;;;;;;4.97;0.93;;;26.70;90.00;;;;;;4079257;29;20051;-63
2023/09/01 08:18:58;;;;;;;4.78;0.90;;;26.50;88.10;;;;;;4079088;29;20087;-68
2023/09/01 08:21:04;;;;;;;8.93;2.10;;;26.10;85.70;;;;;;4079420;29;20373;-62
2023/09/01 08:23:06;;;;;;;6.80;1.63;;;25.50;85.90;;;;;;4079460;29;20083;-61
2023/09/01 08:25:09;;;;;;;2.03;1.10;;;25.50;87.00;;;;;;4080000;29;20115;-66
2023/09/01 08:27:10;;;;;;;0.95;0.80;;;25.50;86.80;;;;;;4077091;29;20886;-67
2023/09/01 08:29:13;;;;;;;0.98;0.70;;;25.90;86.70;;;;;;4080078;29;20468;-67
2023/09/01 08:31:14;;;;;;;1.35;0.80;;;26.10;85.50;;;;;;4078970;29;20023;-65
2023/09/01 08:33:17;;;;;;;1.05;0.60;;;25.90;83.90;;;;;;4083390;29;20032;-61
2023/09/01 08:35:18;;;;;;;1.45;0.68;;;25.80;83.80;;;;;;4082181;29;20563;-68
2023/09/01 08:37:20;;;;;;;0.77;0.77;;;25.70;82.00;;;;;;4083130;29;20047;-63
2023/09/01 08:39:21;;;;;;;1.50;0.98;;;25.50;82.50;;;;;;4081928;29;20106;-67
2023/09/01 08:41:24;;;;;;;2.35;0.88;;;25.80;83.10;;;;;;4083386;29;20027;-65
2023/09/01 08:43:27;;;;;;;1.15;0.60;;;26.00;82.90;;;;;;4081773;29;20043;-66
2023/09/01 08:45:31;;;;;;;0.75;0.75;;;26.00;82.50;;;;;;4082935;29;20035;-67
2023/09/01 08:47:37;;;;;;;1.05;0.60;;;26.00;82.20;;;;;;4082214;29;20043;-66
2023/09/01 08:49:38;;;;;;;2.42;1.00;;;26.00;81.80;;;;;;4082851;29;20445;-69
2023/09/01 08:51:40;;;;;;;11.30;1.00;;;25.70;82.10;;;;;;4082218;29;20039;-63
2023/09/01 08:53:42;;;;;;;2.90;0.68;;;25.80;82.90;;;;;;4082781;29;20090;-68
2023/09/01 08:55:44;;;;;;;0.88;0.70;;;25.80;82.70;;;;;;4082221;29;20040;-63
2023/09/01 08:57:49;;;;;;;1.10;0.80;;;25.80;82.30;;;;;;4082017;29;20044;-65
2023/09/01 08:59:50;;;;;;;1.30;0.70;;;25.90;82.80;;;;;;4082384;29;20128;-68
2023/09/01 09:01:51;;;;;;;1.52;0.82;;;25.90;82.40;;;;;;4081474;29;20103;-67
2023/09/01 09:03:52;;;;;;;1.40;0.60;;;26.00;82.30;;;;;;4082658;29;20098;-65
2023/09/01 09:05:53;;;;;;;7.07;1.67;;;26.10;81.60;;;;;;4081321;29;20543;-68
2023/09/01 09:07:58;;;;;;;1.17;0.65;;;26.10;81.40;;;;;;4081816;29;20492;-61
2023/09/01 09:10:00;;;;;;;1.80;0.68;;;26.10;81.00;;;;;;4081516;29;20044;-68
2023/09/01 09:12:01;;;;;;;1.38;0.73;;;26.00;81.30;;;;;;4082788;29;20079;-66
2023/09/01 09:14:02;;;;;;;1.00;0.70;;;25.80;82.00;;;;;;4081549;29;20102;-68
2023/09/01 09:16:07;;;;;;;2.05;1.02;;;25.80;82.10;;;;;;4082626;29;20062;-68
2023/09/01 09:18:08;;;;;;;1.27;0.80;;;25.90;80.70;;;;;;4081036;29;20111;-67
2023/09/01 09:20:11;;;;;;;1.95;0.73;;;25.90;81.60;;;;;;4081839;29;20472;-69
2023/09/01 09:22:14;;;;;;;1.45;0.88;;;25.90;81.40;;;;;;4081648;29;20075;-67
2023/09/01 09:24:36;;;;;;;3.97;0.75;;;26.00;81.60;;;;;;4082359;29;20143;-68
2023/09/01 09:26:37;;;;;;;1.27;0.63;;;26.20;81.00;;;;;;4081470;29;20417;-67
2023/09/01 09:28:38;;;;;;;1.10;0.60;;;26.20;81.20;;;;;;4081836;29;20035;-69
2023/09/01 09:30:50;;;;;;;1.13;0.80;;;26.30;81.30;;;;;;4081372;29;20032;-63
2023/09/01 09:33:07;;;;;;;1.90;0.70;;;26.20;80.50;;;;;;4081974;29;20043;-68
2023/09/01 09:35:10;;;;;;;1.58;0.50;;;26.10;80.40;;;;;;4081431;29;20532;-64
2023/09/01 09:37:18;;;;;;;0.50;0.50;;;26.10;81.60;;;;;;4082044;29;20169;-68
2023/09/01 09:39:27;;;;;;;2.28;0.90;;;26.20;81.10;;;;;;4081318;29;20050;-69
2023/09/01 09:41:45;;;;;;;1.00;0.65;;;26.00;79.50;;;;;;4082000;29;20107;-69
2023/09/01 09:43:49;;;;;;;1.98;0.80;;;25.80;80.20;;;;;;4080249;29;20048;-68
2023/09/01 09:45:54;;;;;;;0.88;0.70;;;25.70;81.20;;;;;;4081766;29;20618;-69
2023/09/01 09:47:58;;;;;;;1.83;0.55;;;25.70;81.30;;;;;;4080785;29;20067;-68
2023/09/01 09:50:01;;;;;;;0.98;0.70;;;25.80;81.90;;;;;;4081675;29;20311;-69
2023/09/01 09:52:05;;;;;;;1.33;0.90;;;25.70;82.10;;;;;;4081161;29;20036;-67
2023/09/01 09:54:09;;;;;;;2.88;0.68;;;25.80;82.10;;;;;;4080930;29;20091;-66
2023/09/01 09:56:19;;;;;;;0.68;0.68;;;26.00;81.70;;;;;;4081667;29;20087;-68
2023/09/01 09:58:39;;;;;;;6.18;0.95;;;26.00;81.10;;;;;;4080836;29;20525;-68
2023/09/01 10:00:50;;;;;;;3.03;1.08;;;26.00;80.40;;;;;;4081254;29;20066;-68
2023/09/01 10:02:56;;;;;;;2.33;1.20;;;25.50;80.30;;;;;;4081271;29;20047;-68
2023/09/01 10:04:58;;;;;;;1.83;0.77;;;25.00;81.30;;;;;;4081543;29;20445;-68
2023/09/01 10:06:59;;;;;;;6.78;1.90;;;24.90;82.60;;;;;;4081130;29;20090;-69
2023/09/01 10:09:05;;;;;;;5.35;2.40;;;24.80;83.10;;;;;;4081615;29;20120;-70
2023/09/01 10:11:08;;;;;;;0.50;0.43;;;24.80;83.60;;;;;;4080864;29;20028;-68
2023/09/01 10:13:10;;;;;;;1.75;0.70;;;24.50;83.60;;;;;;4082296;29;20107;-67
2023/09/01 10:15:13;;;;;;;2.38;0.70;;;24.30;84.00;;;;;;4080637;29;20547;-66
2023/09/01 10:17:16;;;;;;;1.80;0.80;;;24.30;84.60;;;;;;4081830;29;20031;-65
2023/09/01 10:19:21;;;;;;;2.25;0.88;;;24.40;84.80;;;;;;4080590;29;20035;-63
2023/09/01 10:21:22;;;;;;;2.80;1.33;;;24.50;84.40;;;;;;4081554;29;20055;-65
2023/09/01 10:23:24;;;;;;;1.90;0.82;;;24.50;85.10;;;;;;4080912;29;20051;-66
2023/09/01 10:25:26;;;;;;;14.30;1.90;;;24.60;85.00;;;;;;4081960;29;20111;-66
2023/09/01 10:27:27;;;;;;;3.35;0.60;;;24.50;84.90;;;;;;4080804;29;20444;-66
2023/09/01 10:29:31;;;;;;;2.13;0.80;;;24.30;84.80;;;;;;4081743;29;20027;-63
2023/09/01 10:31:35;;;;;;;4.35;1.33;;;24.10;84.50;;;;;;4080520;29;20540;-67
2023/09/01 10:33:37;;;;;;;2.53;1.00;;;24.20;85.00;;;;;;4081324;29;20520;-64
2023/09/01 10:35:40;;;;;;;2.40;0.80;;;24.20;84.00;;;;;;4080867;29;20492;-63
2023/09/01 10:37:41;;;;;;;1.98;1.20;;;24.30;83.20;;;;;;4080842;29;20035;-69